Terminal Aerodrome Forecast
Issued by NWS

Home | Current Version | Previous Version | Text Only | Print | Product List | Glossary On
Versions: 1 2 3 4 5 6 7 8 9 10 11 12 13 14 15 16 17 18 19
881
FTUS44 KJAN 011913 AAC
TAFGTR
TAF AMD
KGTR 011913Z 0119/0218 VRB03KT 6SM BR BKN010 OVC080
     FM012000 19009KT P6SM VCSH BKN015 OVC040
     FM012200 16007KT P6SM SCT040 OVC120
     FM020600 19005KT P6SM OVC007
     FM021600 21006KT P6SM VCSH BKN010 OVC025=

USA.gov is the U.S. government's official web portal to all federal, state and local government web resources and services.